Goliah — WDD5908 — position and weather

sailwx.info

Track history (hours):
 
Tides and Currents Weather Stations Pressure Air Temp Water Temp Dewpoint Dewpoint Depression Visibility Wind Speed Wind Dir Waves Ship Positions

Goliah

Owner: Crowley Marine Services, Seattle, WA. More information available from US FCC via Universal Licensing System and Coast Guard Vessel Documentation Center.

Last reported at 2016-Jun-29 06:25 UTC. Time now 2016-Jun-29 07:29 UTC.
Position N 33°44' W 118°17'.

Length 33 m; draft 4.8 m.

Type: Tug. MMSI: 366898250.

Date/timePositionNaut miles runAvg speedWind from/ knotsBaromVisibWave heightAir tempDewpointWater temp
2016-Jun-29 06:25N 33°44' W 118°17'0 0.0
2016-Jun-29 05:34N 33°44' W 118°17'0 0.0
2016-Jun-29 04:33N 33°44' W 118°17'0 0.0
2016-Jun-29 03:33N 33°44' W 118°17'0 0.0
2016-Jun-29 02:34N 33°44' W 118°17'0 0.0
2016-Jun-29 01:33N 33°44' W 118°17'0 0.0
2016-Jun-29 00:34N 33°44' W 118°17'0 0.0
2016-Jun-28 23:34N 33°44' W 118°17'1 1.1
2016-Jun-28 22:34N 33°45' W 118°16'3 2.5
2016-Jun-28 21:33N 33°43' W 118°16'2 2.1
2016-Jun-28 20:34N 33°41' W 118°14'4 3.7
2016-Jun-28 19:34N 33°44' W 118°17'0 0.0
2016-Jun-28 18:34N 33°44' W 118°17'0 0.0
2016-Jun-28 17:33N 33°44' W 118°17'0 0.0
2016-Jun-28 16:33N 33°44' W 118°17'0 0.0
2016-Jun-28 15:34N 33°44' W 118°17'0 0.0
2016-Jun-28 14:33N 33°44' W 118°17'0 0.4
2016-Jun-28 13:34N 33°45' W 118°16'1 1.0
2016-Jun-28 12:33N 33°44' W 118°16'3 2.6
2016-Jun-28 11:34N 33°44' W 118°13'2 1.9
2016-Jun-28 10:33N 33°43' W 118°15'2 1.6
2016-Jun-28 09:34N 33°44' W 118°16'1 0.5
2016-Jun-28 08:33N 33°44' W 118°17'2 2.2
2016-Jun-28 07:33N 33°43' W 118°15'3 2.8
2016-Jun-28 06:34N 33°45' W 118°13'1 0.6
2016-Jun-28 04:33N 33°46' W 118°14'1 1.4
2016-Jun-28 03:33N 33°45' W 118°13'0 0.0
2016-Jun-28 02:33N 33°45' W 118°13'0 0.2
2016-Jun-28 01:34N 33°45' W 118°13'1 1.4
2016-Jun-28 00:33N 33°46' W 118°13'1 1.2
2016-Jun-27 23:33N 33°45' W 118°13'0 0.0
2016-Jun-27 22:34N 33°45' W 118°13'1 1.1
2016-Jun-27 21:33N 33°46' W 118°14'1 1.5
2016-Jun-27 20:33N 33°45' W 118°13'2 1.5
2016-Jun-27 19:34N 33°43' W 118°13'3 3.2
2016-Jun-27 18:34N 33°44' W 118°17'0 0.0
2016-Jun-27 17:33N 33°44' W 118°17'0 0.0
2016-Jun-27 16:20N 33°44' W 118°17'5 6.7
2016-Jun-27 15:34N 33°44' W 118°10'5 4.6
2016-Jun-27 14:30N 33°43' W 118°16'3 2.7
2016-Jun-27 13:33N 33°46' W 118°15'2 1.5
2016-Jun-27 12:26N 33°45' W 118°17'0 0.2
2016-Jun-27 11:33N 33°44' W 118°17'3 2.7
2016-Jun-27 10:34N 33°44' W 118°14'2 1.8
2016-Jun-27 09:34N 33°45' W 118°13'5 4.5
2016-Jun-27 08:31N 33°41' W 118°10'3 3.1
2016-Jun-27 07:32N 33°44' W 118°12'2 1.9
2016-Jun-27 06:33N 33°46' W 118°13'0 0.3
2016-Jun-27 05:34N 33°45' W 118°13'3 0.8
2016-Jun-27 01:28N 33°44' W 118°17'0 0.0
2016-Jun-27 00:33N 33°44' W 118°17'0 0.0
2016-Jun-26 23:33N 33°44' W 118°17'0 0.0
2016-Jun-26 22:33N 33°44' W 118°17'0 0.0
2016-Jun-26 21:34N 33°44' W 118°17'2 1.6
2016-Jun-26 20:31N 33°43' W 118°16'3 3.3
2016-Jun-26 19:33N 33°45' W 118°12'0 0.3
2016-Jun-26 18:34N 33°45' W 118°12'4 3.0
2016-Jun-26 17:22N 33°44' W 118°17'0 0.0
2016-Jun-26 14:29N 33°44' W 118°17'0 0.0
2016-Jun-26 13:34N 33°44' W 118°17'0 0.0
2016-Jun-26 12:33N 33°44' W 118°17'1 0.9
2016-Jun-26 11:33N 33°45' W 118°16'1 0.9
2016-Jun-26 10:32N 33°44' W 118°17'0 0.0
2016-Jun-26 09:33N 33°44' W 118°17'0 0.0
2016-Jun-26 08:34N 33°44' W 118°17'0 0.0
2016-Jun-26 07:33N 33°44' W 118°17'0 0.0
2016-Jun-26 06:34N 33°44' W 118°17'0 0.0
2016-Jun-26 04:32N 33°44' W 118°17'0 0.0
2016-Jun-26 03:34N 33°44' W 118°17'0 0.0
2016-Jun-26 02:31N 33°44' W 118°17'1 1.0
2016-Jun-26 01:33N 33°44' W 118°16'3 2.6
2016-Jun-26 00:34N 33°45' W 118°13'1 0.7
2016-Jun-25 23:34N 33°45' W 118°13'0 0.0
2016-Jun-25 22:34N 33°45' W 118°13'1 1.2
2016-Jun-25 21:33N 33°44' W 118°12'5 4.4
2016-Jun-25 20:32N 33°40' W 118°10'7 6.6
2016-Jun-25 19:31N 33°46' W 118°13'0 0.1
2016-Jun-25 18:33N 33°46' W 118°13'3 3.1
2016-Jun-25 17:32N 33°44' W 118°11'2 2.0
2016-Jun-25 16:34N 33°45' W 118°13'0 0.3
2016-Jun-25 15:33N 33°45' W 118°13'1 0.6
2016-Jun-25 14:33N 33°45' W 118°14'1 1.1
2016-Jun-25 13:34N 33°45' W 118°12'1 0.7
2016-Jun-25 12:34N 33°44' W 118°12'4 3.4
2016-Jun-25 11:32N 33°45' W 118°17'1 1.3
2016-Jun-25 10:34N 33°46' W 118°16'1 0.5
2016-Jun-25 09:33N 33°45' W 118°16'0 0.1
2016-Jun-25 08:34N 33°45' W 118°16'2 1.5
2016-Jun-25 07:20N 33°43' W 118°16'2 2.5
2016-Jun-25 06:33N 33°45' W 118°16'3 1.4
2016-Jun-25 04:31N 33°44' W 118°13'2 1.5
2016-Jun-25 03:32N 33°45' W 118°13'3 3.1
2016-Jun-25 02:26N 33°44' W 118°17'1 1.6
2016-Jun-25 01:33N 33°46' W 118°16'0 0.2
2016-Jun-25 00:33N 33°46' W 118°16'1 1.1
2016-Jun-24 23:33N 33°45' W 118°16'1 0.4
2016-Jun-24 22:18N 33°44' W 118°17'0 0.0
2016-Jun-24 21:32N 33°44' W 118°17'0 0.0
2016-Jun-24 19:20N 33°44' W 118°17'0 0.0
2016-Jun-24 18:33N 33°44' W 118°17'1 1.5
2016-Jun-24 17:33N 33°46' W 118°16'1 0.7
2016-Jun-24 16:34N 33°45' W 118°16'1 0.8
2016-Jun-24 15:31N 33°44' W 118°17'0 0.0
2016-Jun-24 14:34N 33°44' W 118°17'1 0.9
2016-Jun-24 13:32N 33°45' W 118°17'1 0.8
2016-Jun-24 12:33N 33°45' W 118°17'4 4.1
2016-Jun-24 11:34N 33°41' W 118°14'4 4.0
2016-Jun-24 10:34N 33°45' W 118°13'0 0.0
2016-Jun-24 09:33N 33°45' W 118°13'3 3.1
2016-Jun-24 08:33N 33°44' W 118°17'1 1.1
2016-Jun-24 07:34N 33°46' W 118°16'1 0.4
2016-Jun-24 04:30N 33°44' W 118°17'0 0.0
2016-Jun-24 03:33N 33°44' W 118°17'1 1.3
2016-Jun-24 02:33N 33°44' W 118°15'0 0.3
2016-Jun-24 01:33N 33°44' W 118°16'0 0.5
2016-Jun-24 00:34N 33°44' W 118°15'3 2.9
2016-Jun-23 23:33N 33°46' W 118°13'4 3.6
2016-Jun-23 22:29N 33°43' W 118°16'1 1.4
2016-Jun-23 21:33N 33°44' W 118°17'1 0.2
2016-Jun-23 14:33N 33°46' W 118°16'1 0.6
2016-Jun-23 13:33N 33°45' W 118°16'2 2.5
2016-Jun-23 12:33N 33°44' W 118°14'3 2.5
2016-Jun-23 11:33N 33°44' W 118°17'0 0.1
2016-Jun-23 10:31N 33°44' W 118°17'0 0.0
2016-Jun-23 09:33N 33°44' W 118°17'0 0.0
2016-Jun-23 08:31N 33°44' W 118°17'0 0.0
2016-Jun-23 07:20N 33°44' W 118°17'0 0.0
2016-Jun-23 05:24N 33°44' W 118°17'3 3.7
2016-Jun-23 04:33N 33°45' W 118°13'0 0.0
2016-Jun-23 03:34N 33°45' W 118°13'3 2.8
2016-Jun-23 02:34N 33°44' W 118°10'2 2.5
2016-Jun-23 01:34N 33°45' W 118°13'0 0.0
2016-Jun-23 00:34N 33°45' W 118°13'0 0.0
2016-Jun-22 23:34N 33°45' W 118°13'0 0.3
2016-Jun-22 22:32N 33°45' W 118°13'2 2.0
2016-Jun-22 21:33N 33°43' W 118°14'3 3.0
2016-Jun-22 20:34N 33°46' W 118°15'1 0.6
2016-Jun-22 19:34N 33°46' W 118°15'2 1.3
2016-Jun-22 18:14N 33°44' W 118°17'0 0.0
2016-Jun-22 17:33N 33°44' W 118°17'3 0.8
2016-Jun-22 13:21N 33°44' W 118°13'1 1.7
2016-Jun-22 12:34N 33°45' W 118°12'1 1.3
2016-Jun-22 11:28N 33°44' W 118°12'4 1.4
2016-Jun-22 08:25N 33°44' W 118°17'0 0.0
2016-Jun-22 07:34N 33°44' W 118°17'0 0.0
2016-Jun-22 06:09N 33°44' W 118°17'2 2.6
2016-Jun-22 05:34N 33°46' W 118°16'0 0.2
2016-Jun-22 04:33N 33°45' W 118°16'2 1.4
2016-Jun-22 03:24N 33°44' W 118°16'1 0.5
2016-Jun-22 02:24N 33°44' W 118°17'0 0.2
2016-Jun-22 01:06N 33°44' W 118°17'0 0.4
2016-Jun-22 00:33N 33°44' W 118°17'2 1.5
2016-Jun-21 23:34N 33°46' W 118°16'2 1.4
2016-Jun-21 22:21N 33°44' W 118°17'1 1.4
2016-Jun-21 21:33N 33°44' W 118°15'3 2.0
2016-Jun-21 20:10N 33°41' W 118°14'4 6.2
2016-Jun-21 19:33N 33°44' W 118°17'0 0.0
2016-Jun-21 16:17N 33°44' W 118°17'0 0.0
2016-Jun-21 15:33N 33°44' W 118°17'0 0.0
2016-Jun-21 14:34N 33°44' W 118°17'0 0.0
2016-Jun-21 13:30N 33°44' W 118°17'0 0.0
2016-Jun-21 12:34N 33°44' W 118°17'0 0.0
2016-Jun-21 11:22N 33°44' W 118°17'0 0.0
2016-Jun-21 10:32N 33°44' W 118°17'3 2.6
2016-Jun-21 09:33N 33°43' W 118°14'2 2.3
2016-Jun-21 08:33N 33°45' W 118°13'2 2.3
2016-Jun-21 07:34N 33°44' W 118°11'5 1.5
2016-Jun-21 04:34N 33°44' W 118°17'1 0.8
2016-Jun-21 03:34N 33°44' W 118°16'3 3.3
2016-Jun-21 02:34N 33°46' W 118°13'1 0.9
2016-Jun-21 01:34N 33°46' W 118°13'2 1.9
2016-Jun-21 00:34N 33°45' W 118°12'0 0.1
2016-Jun-20 23:34N 33°45' W 118°12'3 3.1
2016-Jun-20 22:33N 33°45' W 118°16'0 0.4
2016-Jun-20 21:33N 33°45' W 118°16'3 2.8
2016-Jun-20 20:33N 33°43' W 118°14'2 1.8
2016-Jun-20 19:34N 33°44' W 118°12'4 3.6
2016-Jun-20 18:33N 33°44' W 118°17'0 0.0
2016-Jun-20 17:33N 33°44' W 118°17'0 0.0
2016-Jun-20 16:33N 33°44' W 118°17'0 0.0
2016-Jun-20 15:33N 33°44' W 118°17'0 0.0
2016-Jun-20 14:33N 33°44' W 118°17'0 0.4
2016-Jun-20 13:33N 33°45' W 118°16'0 0.3
2016-Jun-20 12:34N 33°45' W 118°16'3 2.6
2016-Jun-20 11:33N 33°43' W 118°15'2 2.4
2016-Jun-20 10:33N 33°44' W 118°17'0 0.0
2016-Jun-20 09:34N 33°44' W 118°17'0 0.0
2016-Jun-20 08:33N 33°44' W 118°17'0 0.0
2016-Jun-20 07:33N 33°44' W 118°17'0 0.0
2016-Jun-20 06:27N 33°44' W 118°17'0 0.0
2016-Jun-20 05:31N 33°44' W 118°17'0 0.0
2016-Jun-20 04:34N 33°44' W 118°17'1 1.2
2016-Jun-20 03:33N 33°43' W 118°16'3 3.0
2016-Jun-20 02:34N 33°44' W 118°13'3 3.1
2016-Jun-20 01:34N 33°44' W 118°16'1 0.7
2016-Jun-20 00:32N 33°44' W 118°17'0 0.0
2016-Jun-19 23:34N 33°44' W 118°17'2 1.6
2016-Jun-19 22:33N 33°43' W 118°16'3 2.8
2016-Jun-19 21:34N 33°45' W 118°13'0 0.3
2016-Jun-19 20:34N 33°45' W 118°13'3 1.5
2016-Jun-19 18:29N 33°44' W 118°17'3 3.6
2016-Jun-19 17:33N 33°46' W 118°13'0 0.2
2016-Jun-19 16:33N 33°46' W 118°13'3 3.2
2016-Jun-19 15:34N 33°43' W 118°11'0 0.3
2016-Jun-19 14:34N 33°43' W 118°11'3 3.1
2016-Jun-19 13:33N 33°40' W 118°11'6 6.4
2016-Jun-19 12:33N 33°44' W 118°17'0 0.0
2016-Jun-19 11:33N 33°44' W 118°17'1 0.7
2016-Jun-19 10:34N 33°45' W 118°16'0 0.2
2016-Jun-19 09:34N 33°45' W 118°16'0 0.5
2016-Jun-19 08:34N 33°44' W 118°17'0 0.0
2016-Jun-19 07:34N 33°44' W 118°17'0 0.0
2016-Jun-19 06:34N 33°44' W 118°17'  
Track history (hours):
 
Tides and Currents Weather Stations Pressure Air Temp Water Temp Dewpoint Dewpoint Depression Visibility Wind Speed Wind Dir Waves Ship Positions

Goliah

Owner: Crowley Marine Services, Seattle, WA. More information available from US FCC via Universal Licensing System and Coast Guard Vessel Documentation Center.

Last reported at 2016-Jun-29 06:25 UTC. Time now 2016-Jun-29 07:29 UTC.
Position N 33°44' W 118°17'.

Length 33 m; draft 4.8 m.

Type: Tug. MMSI: 366898250.

Date/timePositionNaut miles runAvg speedWind from/ knotsBaromVisibWave heightAir tempDewpointWater temp
2016-Jun-29 06:25N 33°44' W 118°17'0 0.0
2016-Jun-29 05:34N 33°44' W 118°17'0 0.0
2016-Jun-29 04:33N 33°44' W 118°17'0 0.0
2016-Jun-29 03:33N 33°44' W 118°17'0 0.0
2016-Jun-29 02:34N 33°44' W 118°17'0 0.0
2016-Jun-29 01:33N 33°44' W 118°17'0 0.0
2016-Jun-29 00:34N 33°44' W 118°17'0 0.0
2016-Jun-28 23:34N 33°44' W 118°17'1 1.1
2016-Jun-28 22:34N 33°45' W 118°16'3 2.5
2016-Jun-28 21:33N 33°43' W 118°16'2 2.1
2016-Jun-28 20:34N 33°41' W 118°14'4 3.7
2016-Jun-28 19:34N 33°44' W 118°17'0 0.0
2016-Jun-28 18:34N 33°44' W 118°17'0 0.0
2016-Jun-28 17:33N 33°44' W 118°17'0 0.0
2016-Jun-28 16:33N 33°44' W 118°17'0 0.0
2016-Jun-28 15:34N 33°44' W 118°17'0 0.0
2016-Jun-28 14:33N 33°44' W 118°17'0 0.4
2016-Jun-28 13:34N 33°45' W 118°16'1 1.0
2016-Jun-28 12:33N 33°44' W 118°16'3 2.6
2016-Jun-28 11:34N 33°44' W 118°13'2 1.9
2016-Jun-28 10:33N 33°43' W 118°15'2 1.6
2016-Jun-28 09:34N 33°44' W 118°16'1 0.5
2016-Jun-28 08:33N 33°44' W 118°17'2 2.2
2016-Jun-28 07:33N 33°43' W 118°15'3 2.8
2016-Jun-28 06:34N 33°45' W 118°13'1 0.6
2016-Jun-28 04:33N 33°46' W 118°14'1 1.4
2016-Jun-28 03:33N 33°45' W 118°13'0 0.0
2016-Jun-28 02:33N 33°45' W 118°13'0 0.2
2016-Jun-28 01:34N 33°45' W 118°13'1 1.4
2016-Jun-28 00:33N 33°46' W 118°13'1 1.2
2016-Jun-27 23:33N 33°45' W 118°13'0 0.0
2016-Jun-27 22:34N 33°45' W 118°13'1 1.1
2016-Jun-27 21:33N 33°46' W 118°14'1 1.5
2016-Jun-27 20:33N 33°45' W 118°13'2 1.5
2016-Jun-27 19:34N 33°43' W 118°13'3 3.2
2016-Jun-27 18:34N 33°44' W 118°17'0 0.0
2016-Jun-27 17:33N 33°44' W 118°17'0 0.0
2016-Jun-27 16:20N 33°44' W 118°17'5 6.7
2016-Jun-27 15:34N 33°44' W 118°10'5 4.6
2016-Jun-27 14:30N 33°43' W 118°16'3 2.7
2016-Jun-27 13:33N 33°46' W 118°15'2 1.5
2016-Jun-27 12:26N 33°45' W 118°17'0 0.2
2016-Jun-27 11:33N 33°44' W 118°17'3 2.7
2016-Jun-27 10:34N 33°44' W 118°14'2 1.8
2016-Jun-27 09:34N 33°45' W 118°13'5 4.5
2016-Jun-27 08:31N 33°41' W 118°10'3 3.1
2016-Jun-27 07:32N 33°44' W 118°12'2 1.9
2016-Jun-27 06:33N 33°46' W 118°13'0 0.3
2016-Jun-27 05:34N 33°45' W 118°13'3 0.8
2016-Jun-27 01:28N 33°44' W 118°17'0 0.0
2016-Jun-27 00:33N 33°44' W 118°17'0 0.0
2016-Jun-26 23:33N 33°44' W 118°17'0 0.0
2016-Jun-26 22:33N 33°44' W 118°17'0 0.0
2016-Jun-26 21:34N 33°44' W 118°17'2 1.6
2016-Jun-26 20:31N 33°43' W 118°16'3 3.3
2016-Jun-26 19:33N 33°45' W 118°12'0 0.3
2016-Jun-26 18:34N 33°45' W 118°12'4 3.0
2016-Jun-26 17:22N 33°44' W 118°17'0 0.0
2016-Jun-26 14:29N 33°44' W 118°17'0 0.0
2016-Jun-26 13:34N 33°44' W 118°17'0 0.0
2016-Jun-26 12:33N 33°44' W 118°17'1 0.9
2016-Jun-26 11:33N 33°45' W 118°16'1 0.9
2016-Jun-26 10:32N 33°44' W 118°17'0 0.0
2016-Jun-26 09:33N 33°44' W 118°17'0 0.0
2016-Jun-26 08:34N 33°44' W 118°17'0 0.0
2016-Jun-26 07:33N 33°44' W 118°17'0 0.0
2016-Jun-26 06:34N 33°44' W 118°17'0 0.0
2016-Jun-26 04:32N 33°44' W 118°17'0 0.0
2016-Jun-26 03:34N 33°44' W 118°17'0 0.0
2016-Jun-26 02:31N 33°44' W 118°17'1 1.0
2016-Jun-26 01:33N 33°44' W 118°16'3 2.6
2016-Jun-26 00:34N 33°45' W 118°13'1 0.7
2016-Jun-25 23:34N 33°45' W 118°13'0 0.0
2016-Jun-25 22:34N 33°45' W 118°13'1 1.2
2016-Jun-25 21:33N 33°44' W 118°12'5 4.4
2016-Jun-25 20:32N 33°40' W 118°10'7 6.6
2016-Jun-25 19:31N 33°46' W 118°13'0 0.1
2016-Jun-25 18:33N 33°46' W 118°13'3 3.1
2016-Jun-25 17:32N 33°44' W 118°11'2 2.0
2016-Jun-25 16:34N 33°45' W 118°13'0 0.3
2016-Jun-25 15:33N 33°45' W 118°13'1 0.6
2016-Jun-25 14:33N 33°45' W 118°14'1 1.1
2016-Jun-25 13:34N 33°45' W 118°12'1 0.7
2016-Jun-25 12:34N 33°44' W 118°12'4 3.4
2016-Jun-25 11:32N 33°45' W 118°17'1 1.3
2016-Jun-25 10:34N 33°46' W 118°16'1 0.5
2016-Jun-25 09:33N 33°45' W 118°16'0 0.1
2016-Jun-25 08:34N 33°45' W 118°16'2 1.5
2016-Jun-25 07:20N 33°43' W 118°16'2 2.5
2016-Jun-25 06:33N 33°45' W 118°16'3 1.4
2016-Jun-25 04:31N 33°44' W 118°13'2 1.5
2016-Jun-25 03:32N 33°45' W 118°13'3 3.1
2016-Jun-25 02:26N 33°44' W 118°17'1 1.6
2016-Jun-25 01:33N 33°46' W 118°16'0 0.2
2016-Jun-25 00:33N 33°46' W 118°16'1 1.1
2016-Jun-24 23:33N 33°45' W 118°16'1 0.4
2016-Jun-24 22:18N 33°44' W 118°17'0 0.0
2016-Jun-24 21:32N 33°44' W 118°17'0 0.0
2016-Jun-24 19:20N 33°44' W 118°17'0 0.0
2016-Jun-24 18:33N 33°44' W 118°17'1 1.5
2016-Jun-24 17:33N 33°46' W 118°16'1 0.7
2016-Jun-24 16:34N 33°45' W 118°16'1 0.8
2016-Jun-24 15:31N 33°44' W 118°17'0 0.0
2016-Jun-24 14:34N 33°44' W 118°17'1 0.9
2016-Jun-24 13:32N 33°45' W 118°17'1 0.8
2016-Jun-24 12:33N 33°45' W 118°17'4 4.1
2016-Jun-24 11:34N 33°41' W 118°14'4 4.0
2016-Jun-24 10:34N 33°45' W 118°13'0 0.0
2016-Jun-24 09:33N 33°45' W 118°13'3 3.1
2016-Jun-24 08:33N 33°44' W 118°17'1 1.1
2016-Jun-24 07:34N 33°46' W 118°16'1 0.4
2016-Jun-24 04:30N 33°44' W 118°17'0 0.0
2016-Jun-24 03:33N 33°44' W 118°17'1 1.3
2016-Jun-24 02:33N 33°44' W 118°15'0 0.3
2016-Jun-24 01:33N 33°44' W 118°16'0 0.5
2016-Jun-24 00:34N 33°44' W 118°15'3 2.9
2016-Jun-23 23:33N 33°46' W 118°13'4 3.6
2016-Jun-23 22:29N 33°43' W 118°16'1 1.4
2016-Jun-23 21:33N 33°44' W 118°17'1 0.2
2016-Jun-23 14:33N 33°46' W 118°16'1 0.6
2016-Jun-23 13:33N 33°45' W 118°16'2 2.5
2016-Jun-23 12:33N 33°44' W 118°14'3 2.5
2016-Jun-23 11:33N 33°44' W 118°17'0 0.1
2016-Jun-23 10:31N 33°44' W 118°17'0 0.0
2016-Jun-23 09:33N 33°44' W 118°17'0 0.0
2016-Jun-23 08:31N 33°44' W 118°17'0 0.0
2016-Jun-23 07:20N 33°44' W 118°17'0 0.0
2016-Jun-23 05:24N 33°44' W 118°17'3 3.7
2016-Jun-23 04:33N 33°45' W 118°13'0 0.0
2016-Jun-23 03:34N 33°45' W 118°13'3 2.8
2016-Jun-23 02:34N 33°44' W 118°10'2 2.5
2016-Jun-23 01:34N 33°45' W 118°13'0 0.0
2016-Jun-23 00:34N 33°45' W 118°13'0 0.0
2016-Jun-22 23:34N 33°45' W 118°13'0 0.3
2016-Jun-22 22:32N 33°45' W 118°13'2 2.0
2016-Jun-22 21:33N 33°43' W 118°14'3 3.0
2016-Jun-22 20:34N 33°46' W 118°15'1 0.6
2016-Jun-22 19:34N 33°46' W 118°15'2 1.3
2016-Jun-22 18:14N 33°44' W 118°17'0 0.0
2016-Jun-22 17:33N 33°44' W 118°17'3 0.8
2016-Jun-22 13:21N 33°44' W 118°13'1 1.7
2016-Jun-22 12:34N 33°45' W 118°12'1 1.3
2016-Jun-22 11:28N 33°44' W 118°12'4 1.4
2016-Jun-22 08:25N 33°44' W 118°17'0 0.0
2016-Jun-22 07:34N 33°44' W 118°17'0 0.0
2016-Jun-22 06:09N 33°44' W 118°17'2 2.6
2016-Jun-22 05:34N 33°46' W 118°16'0 0.2
2016-Jun-22 04:33N 33°45' W 118°16'2 1.4
2016-Jun-22 03:24N 33°44' W 118°16'1 0.5
2016-Jun-22 02:24N 33°44' W 118°17'0 0.2
2016-Jun-22 01:06N 33°44' W 118°17'0 0.4
2016-Jun-22 00:33N 33°44' W 118°17'2 1.5
2016-Jun-21 23:34N 33°46' W 118°16'2 1.4
2016-Jun-21 22:21N 33°44' W 118°17'1 1.4
2016-Jun-21 21:33N 33°44' W 118°15'3 2.0
2016-Jun-21 20:10N 33°41' W 118°14'4 6.2
2016-Jun-21 19:33N 33°44' W 118°17'0 0.0
2016-Jun-21 16:17N 33°44' W 118°17'0 0.0
2016-Jun-21 15:33N 33°44' W 118°17'0 0.0
2016-Jun-21 14:34N 33°44' W 118°17'0 0.0
2016-Jun-21 13:30N 33°44' W 118°17'0 0.0
2016-Jun-21 12:34N 33°44' W 118°17'0 0.0
2016-Jun-21 11:22N 33°44' W 118°17'0 0.0
2016-Jun-21 10:32N 33°44' W 118°17'3 2.6
2016-Jun-21 09:33N 33°43' W 118°14'2 2.3
2016-Jun-21 08:33N 33°45' W 118°13'2 2.3
2016-Jun-21 07:34N 33°44' W 118°11'5 1.5
2016-Jun-21 04:34N 33°44' W 118°17'1 0.8
2016-Jun-21 03:34N 33°44' W 118°16'3 3.3
2016-Jun-21 02:34N 33°46' W 118°13'1 0.9
2016-Jun-21 01:34N 33°46' W 118°13'2 1.9
2016-Jun-21 00:34N 33°45' W 118°12'0 0.1
2016-Jun-20 23:34N 33°45' W 118°12'3 3.1
2016-Jun-20 22:33N 33°45' W 118°16'0 0.4
2016-Jun-20 21:33N 33°45' W 118°16'3 2.8
2016-Jun-20 20:33N 33°43' W 118°14'2 1.8
2016-Jun-20 19:34N 33°44' W 118°12'4 3.6
2016-Jun-20 18:33N 33°44' W 118°17'0 0.0
2016-Jun-20 17:33N 33°44' W 118°17'0 0.0
2016-Jun-20 16:33N 33°44' W 118°17'0 0.0
2016-Jun-20 15:33N 33°44' W 118°17'0 0.0
2016-Jun-20 14:33N 33°44' W 118°17'0 0.4
2016-Jun-20 13:33N 33°45' W 118°16'0 0.3
2016-Jun-20 12:34N 33°45' W 118°16'3 2.6
2016-Jun-20 11:33N 33°43' W 118°15'2 2.4
2016-Jun-20 10:33N 33°44' W 118°17'0 0.0
2016-Jun-20 09:34N 33°44' W 118°17'0 0.0
2016-Jun-20 08:33N 33°44' W 118°17'0 0.0
2016-Jun-20 07:33N 33°44' W 118°17'0 0.0
2016-Jun-20 06:27N 33°44' W 118°17'0 0.0
2016-Jun-20 05:31N 33°44' W 118°17'0 0.0
2016-Jun-20 04:34N 33°44' W 118°17'1 1.2
2016-Jun-20 03:33N 33°43' W 118°16'3 3.0
2016-Jun-20 02:34N 33°44' W 118°13'3 3.1
2016-Jun-20 01:34N 33°44' W 118°16'1 0.7
2016-Jun-20 00:32N 33°44' W 118°17'0 0.0
2016-Jun-19 23:34N 33°44' W 118°17'2 1.6
2016-Jun-19 22:33N 33°43' W 118°16'3 2.8
2016-Jun-19 21:34N 33°45' W 118°13'0 0.3
2016-Jun-19 20:34N 33°45' W 118°13'3 1.5
2016-Jun-19 18:29N 33°44' W 118°17'3 3.6
2016-Jun-19 17:33N 33°46' W 118°13'0 0.2
2016-Jun-19 16:33N 33°46' W 118°13'3 3.2
2016-Jun-19 15:34N 33°43' W 118°11'0 0.3
2016-Jun-19 14:34N 33°43' W 118°11'3 3.1
2016-Jun-19 13:33N 33°40' W 118°11'6 6.4
2016-Jun-19 12:33N 33°44' W 118°17'0 0.0
2016-Jun-19 11:33N 33°44' W 118°17'1 0.7
2016-Jun-19 10:34N 33°45' W 118°16'0 0.2
2016-Jun-19 09:34N 33°45' W 118°16'0 0.5
2016-Jun-19 08:34N 33°44' W 118°17'0 0.0
2016-Jun-19 07:34N 33°44' W 118°17'0 0.0
2016-Jun-19 06:34N 33°44' W 118°17'  

Dump ship's entire track history